21NY weather

Gautieri Heliport
Batavia, New York, United States

Public forecast

Using degrees Fahrenheit for public forecast. Weather courtesy of forecast.io.

METAR (pilot weather report)

Closest report is Greater Rochester International Airport, 23.4 nm (43.4 km) ENE. Retrieved 2019/06/25 06:54 UTC (1 hour ago):

KROC 250654Z COR 21006KT 10SM -RA FEW080 OVC110 24/20 A2966 RMK AO2 RAE17B33 SLP038 P0000 T02390200

TAF (pilot weather forecast)

Closest forecast is Greater Rochester International Airport, 23.4 nm (43.4 km) ENE. Retrieved 2019/06/25 06:30 UTC (1 hour ago):

TAF KROC 250527Z 2506/2606 20008KT 6SM -RA BKN050 FM250900 21010KT 4SM BR VCSH BKN025 FM251130 25012KT P6SM BKN100 FM251400 25015G25KT P6SM BKN250 FM251800 25015G25KT P6SM SCT040 SCT100 FM252200 25012KT P6SM SCT250